Airfield :
LOGIN :

Register | Disclaimer

   EN    FR    IT 

 










Legend :    VFR   Marginal VFR   IFR   Intensive IFR   Very Intensive IFR
Visi :
Ceiling :
>= 8 km
>= 3000ft
5 to 8 km
1000 to 3000 ft
1500m to 5 km
500 to 1000 ft
800 to 1500m
200 to 500 ft
< 800m
< 200 ft
Symbols :   Thunderstorms  Fog  Heavy snow  Heavy precipitations  Wind > 20 kt
SIGMETs :     Misc.  Thunderstorms  Icing  Turbulence  Mountain Waves  Volcanic Ashes






- Airport Elevation : 433 ft
- IATA code : CCF


LFMK - Carcassonne

CURRENT METAR :
  • 220400Z AUTO 10010KT 070V130 9999 -RA BKN024/// OVC031/// ///CB 07/05 Q1025 TEMPO 10020G40KT 4000 TSRA

EXPIRED METARs :
  • 220330Z AUTO 10009KT 050V150 9999 RA OVC025/// ///CB 07/04 Q1025 TEMPO 10020G40KT 4000 TSRA
  • 220300Z AUTO 10008KT 060V160 9999 -DZ OVC028/// ///TCU 07/05 Q1026 TEMPO 10020G40KT 4000 TSRA SCT020CB OVC026
  • 220230Z AUTO 10010KT 070V130 9999 SCT031/// OVC039/// ///CB 07/04 Q1026
  • 220200Z AUTO 10012KT 060V130 9999 -RA FEW036/// BKN042/// BKN064/// ///TCU 07/04 Q1026
  • 220130Z AUTO 11009KT 080V160 9999 -RA BKN027/// OVC040/// ///CB 07/04 Q1027

TAF TAF LFMK
Valid from the 22 at 03:00 until the 23 at 03:00 UTC


220200Z 2203/2303 10012KT 9999 BKN033
TEMPO 2203/2303 10020G40KT RA OVC030
PROB40
TEMPO 2203/2212 4000 TSRA SCT020CB OVC026



MET'MAP, your aeronautical weather chart ! - Copyright ORBIFLY December 2007 - Disclaimer

ORBIFLY MET'MAP TEAM :

Programming & Development : Alexandra Zaïnal
Concept & original design : Baudouin d'Aumeries
Assistance for programming : Marc-Olivier Méhu
Technical & hardware support : Manuel Goepfert

Contact : metmap@orbifly.com




SOURCES & CREDITS :

   NOAA